Coastal Inspiration — CFN4970 — position and weather

sailwx.info

Track history (hours):
 
Tides and Currents Weather Stations Pressure Air Temp Water Temp Dewpoint Dewpoint Depression Visibility Wind Speed Wind Dir Waves Ship Positions

Coastal Inspiration

Last reported at 2016-Dec-04 13:30 UTC. Time now 2016-Dec-04 14:23 UTC.
Position N 49°10' W 123°53'.

Length 160 m; draft 6 m.

Type: Ship. MMSI: 316011408.

Date/timePositionNaut miles runAvg speedWind from/ knotsBaromVisibWave heightAir tempDewpointWater temp
2016-Dec-04 13:30N 49°10' W 123°53'0 0.0
2016-Dec-04 12:29N 49°10' W 123°53'0 0.0
2016-Dec-04 11:29N 49°10' W 123°53'0 0.0
2016-Dec-04 10:28N 49°10' W 123°53'0 0.0
2016-Dec-04 09:28N 49°10' W 123°53'0 0.0
2016-Dec-04 08:28N 49°10' W 123°53'0 0.0
2016-Dec-04 07:33N 49°10' W 123°53'0 0.0
2016-Dec-04 06:33N 49°10' W 123°53'0 0.0
2016-Dec-04 05:32N 49°10' W 123°53'0 0.0
2016-Dec-04 04:32N 49°10' W 123°53'1 0.6
2016-Dec-04 03:33N 49°10' W 123°53'1716.7
2016-Dec-04 02:33N 49°07' W 123°28'1514.8
2016-Dec-04 01:33N 49°00' W 123°08'1111.5
2016-Dec-04 00:34N 49°04' W 123°25'1918.3
2016-Dec-03 23:33N 49°13' W 123°49'3 3.3
2016-Dec-03 22:33N 49°11' W 123°53'1817.6
2016-Dec-03 21:33N 49°06' W 123°27'1414.2
2016-Dec-03 20:34N 49°00' W 123°08'1111.1
2016-Dec-03 19:33N 49°03' W 123°24'1918.7
2016-Dec-03 18:33N 49°13' W 123°49'3 3.0
2016-Dec-03 17:33N 49°12' W 123°53'1817.8
2016-Dec-03 16:33N 49°07' W 123°27'1414.0
2016-Dec-03 15:34N 49°00' W 123°08'1211.5
2016-Dec-03 14:33N 49°04' W 123°25'1918.7
2016-Dec-03 13:33N 49°13' W 123°50'4 1.9
2016-Dec-03 11:26N 49°10' W 123°53'0 0.0
2016-Dec-03 10:23N 49°10' W 123°53'3 1.4
2016-Dec-03 08:33N 49°12' W 123°53'1717.5
2016-Dec-03 07:34N 49°07' W 123°27'1414.3
2016-Dec-03 06:33N 49°00' W 123°08'1212.0
2016-Dec-03 05:34N 49°04' W 123°25'1918.6
2016-Dec-03 04:33N 49°13' W 123°50'0 0.2
2016-Dec-03 03:34N 49°13' W 123°50'1919.0
2016-Dec-03 02:33N 49°05' W 123°23'1111.3
2016-Dec-03 01:33N 49°00' W 123°08'1211.7
2016-Dec-03 00:33N 49°04' W 123°25'1818.4
2016-Dec-02 23:33N 49°13' W 123°49'3 3.0
2016-Dec-02 22:34N 49°11' W 123°53'1818.0
2016-Dec-02 21:34N 49°06' W 123°27'1413.4
2016-Dec-02 20:32N 49°00' W 123°08'1212.0
2016-Dec-02 19:33N 49°04' W 123°25'1918.7
2016-Dec-02 18:33N 49°13' W 123°50'3 2.7
2016-Dec-02 17:33N 49°11' W 123°53'1817.8
2016-Dec-02 16:33N 49°07' W 123°27'1413.9
2016-Dec-02 15:33N 49°00' W 123°08'1212.0
2016-Dec-02 14:33N 49°04' W 123°25'1918.6
2016-Dec-02 13:34N 49°13' W 123°50'3 0.7
2016-Dec-02 08:33N 49°10' W 123°53'1717.3
2016-Dec-02 07:33N 49°07' W 123°27'1414.3
2016-Dec-02 06:33N 49°00' W 123°08'1212.1
2016-Dec-02 05:34N 49°04' W 123°25'1918.9
2016-Dec-02 04:34N 49°13' W 123°51'0 0.1
2016-Dec-02 03:33N 49°13' W 123°51'1918.6
2016-Dec-02 02:33N 49°06' W 123°24'1212.0
2016-Dec-02 01:33N 49°00' W 123°08'1212.1
2016-Dec-02 00:34N 49°04' W 123°25'1818.2
2016-Dec-01 23:34N 49°13' W 123°50'3 2.5
2016-Dec-01 22:33N 49°12' W 123°53'1818.4
2016-Dec-01 21:34N 49°06' W 123°27'1313.4
2016-Dec-01 20:33N 49°00' W 123°08'1211.5
2016-Dec-01 19:33N 49°03' W 123°25'1918.7
2016-Dec-01 18:33N 49°13' W 123°49'3 2.6
2016-Dec-01 17:33N 49°12' W 123°53'1817.9
2016-Dec-01 16:32N 49°07' W 123°27'1413.9
2016-Dec-01 15:33N 49°00' W 123°08'1211.7
2016-Dec-01 14:33N 49°04' W 123°25'20 3.3
2016-Dec-01 08:30N 49°12' W 123°53'1818.8
2016-Dec-01 07:33N 49°06' W 123°27'1414.1
2016-Dec-01 06:33N 49°00' W 123°08'1313.4
2016-Dec-01 05:33N 49°04' W 123°27'5 1.7
2016-Dec-01 02:33N 49°03' W 123°20'8 8.4
2016-Dec-01 01:34N 49°00' W 123°08'1211.9
2016-Dec-01 00:33N 49°03' W 123°26'18 8.5
2016-Nov-30 22:25N 49°13' W 123°49'1719.1
2016-Nov-30 21:32N 49°06' W 123°26'1313.3
2016-Nov-30 20:33N 49°00' W 123°08'1212.4
2016-Nov-30 19:33N 49°04' W 123°26'18 8.8
2016-Nov-30 17:33N 49°13' W 123°49'2020.3
2016-Nov-30 16:33N 49°04' W 123°21'10 9.3
2016-Nov-30 15:32N 49°00' W 123°08'1312.9
2016-Nov-30 14:33N 49°04' W 123°26'18 2.9
2016-Nov-30 08:19N 49°13' W 123°51'1619.8
2016-Nov-30 07:32N 49°08' W 123°28'1515.4
2016-Nov-30 06:32N 49°00' W 123°08'1010.6
2016-Nov-30 05:33N 49°03' W 123°23'2019.3
2016-Nov-30 04:31N 49°13' W 123°50'2 2.1
2016-Nov-30 03:30N 49°12' W 123°53'1818.5
2016-Nov-30 02:32N 49°06' W 123°27'1411.5
2016-Nov-30 01:21N 49°00' W 123°08'1215.0
2016-Nov-30 00:32N 49°04' W 123°26'1818.3
2016-Nov-29 23:33N 49°13' W 123°50'0 0.1
2016-Nov-29 22:24N 49°13' W 123°50'1719.1
2016-Nov-29 21:31N 49°06' W 123°26'1313.5
2016-Nov-29 20:33N 49°00' W 123°08'1211.6
2016-Nov-29 19:33N 49°03' W 123°25'2 0.7
2016-Nov-29 16:33N 49°05' W 123°25'1212.0
2016-Nov-29 15:32N 49°00' W 123°08'1212.4
2016-Nov-29 14:33N 49°04' W 123°26'1817.9
2016-Nov-29 13:33N 49°13' W 123°49'3 0.6
2016-Nov-29 08:28N 49°12' W 123°53'1719.1
2016-Nov-29 07:33N 49°07' W 123°28'1414.3
2016-Nov-29 06:33N 49°00' W 123°08'1212.1
2016-Nov-29 05:34N 49°04' W 123°26'2 0.6
2016-Nov-29 02:33N 49°06' W 123°25'1312.4
2016-Nov-29 01:33N 49°00' W 123°08'1212.4
2016-Nov-29 00:33N 49°04' W 123°26'18 8.5
2016-Nov-28 22:26N 49°13' W 123°50'1719.0
2016-Nov-28 21:32N 49°06' W 123°26'1310.8
2016-Nov-28 20:20N 49°00' W 123°08'1215.2
2016-Nov-28 19:33N 49°04' W 123°25'19 9.2
2016-Nov-28 17:31N 49°13' W 123°50'1718.0
2016-Nov-28 16:33N 49°06' W 123°26'1311.2
2016-Nov-28 15:22N 49°00' W 123°08'1215.3
2016-Nov-28 14:33N 49°03' W 123°26'20 3.6
2016-Nov-28 09:05N 49°12' W 123°53'1518.8
2016-Nov-28 08:16N 49°07' W 123°31'1419.9
2016-Nov-28 07:33N 49°00' W 123°12'6 5.7
2016-Nov-28 06:33N 49°01' W 123°21'2210.8
2016-Nov-28 04:33N 49°13' W 123°48'2020.4
2016-Nov-28 03:33N 49°04' W 123°21'9 8.6
2016-Nov-28 02:30N 49°00' W 123°08'6 6.9
2016-Nov-28 01:33N 49°01' W 123°18'2420.8
2016-Nov-28 00:23N 49°13' W 123°50'3 2.6
2016-Nov-27 23:14N 49°12' W 123°53'1319.1
2016-Nov-27 22:32N 49°09' W 123°33'1919.1
2016-Nov-27 21:33N 49°00' W 123°08'0 0.1
2016-Nov-27 20:33N 49°00' W 123°08'1111.5
2016-Nov-27 19:33N 49°03' W 123°25'16 1.0
2016-Nov-27 03:23N 49°13' W 123°45'1417.1
2016-Nov-27 02:33N 49°06' W 123°25'1312.8
2016-Nov-27 01:33N 49°00' W 123°08'1312.9
2016-Nov-27 00:33N 49°04' W 123°27'1916.9
2016-Nov-26 23:27N 49°13' W 123°52'2 2.2
2016-Nov-26 22:23N 49°13' W 123°49'1518.7
2016-Nov-26 21:34N 49°07' W 123°27'1414.0
2016-Nov-26 20:33N 49°00' W 123°08'1111.4
2016-Nov-26 19:33N 49°03' W 123°25'20 9.9
2016-Nov-26 17:33N 49°13' W 123°52'1817.9
2016-Nov-26 16:32N 49°06' W 123°26'1313.4
2016-Nov-26 15:33N 49°00' W 123°08'1212.5
2016-Nov-26 14:33N 49°04' W 123°26'19 3.2
2016-Nov-26 08:26N 49°12' W 123°53'1618.4
2016-Nov-26 07:33N 49°07' W 123°30'1615.8
2016-Nov-26 06:33N 49°00' W 123°08'1110.8
2016-Nov-26 05:34N 49°04' W 123°24'2019.1
2016-Nov-26 04:31N 49°13' W 123°50'2 2.2
2016-Nov-26 03:31N 49°12' W 123°53'1818.8
2016-Nov-26 02:33N 49°06' W 123°27'1413.7
2016-Nov-26 01:32N 49°00' W 123°08'1110.9
2016-Nov-26 00:33N 49°03' W 123°24'3 1.1
2016-Nov-25 21:33N 49°06' W 123°26'1313.5
2016-Nov-25 20:33N 49°00' W 123°08'1212.1
2016-Nov-25 19:33N 49°04' W 123°26'18 9.0
2016-Nov-25 17:32N 49°13' W 123°50'1818.0
2016-Nov-25 16:33N 49°05' W 123°25'1212.3
2016-Nov-25 15:33N 49°00' W 123°08'1212.3
2016-Nov-25 14:33N 49°04' W 123°26'16 2.7
2016-Nov-25 08:32N 49°13' W 123°46'2020.3
2016-Nov-25 07:33N 49°03' W 123°19'8 8.0
2016-Nov-25 06:33N 49°00' W 123°08'2118.2
2016-Nov-25 05:24N 49°09' W 123°37'17 6.0
2016-Nov-25 02:34N 49°01' W 123°15'1 1.4
2016-Nov-25 01:33N 49°00' W 123°13'12 3.9
2016-Nov-24 22:20N 49°07' W 123°28'1519.1
2016-Nov-24 21:33N 49°00' W 123°08'6 6.5
2016-Nov-24 20:33N 49°00' W 123°18'2019.8
2016-Nov-24 19:34N 49°11' W 123°43'7 7.1
2016-Nov-24 18:33N 49°10' W 123°53'1616.1
2016-Nov-24 17:33N 49°08' W 123°29'1515.5
2016-Nov-24 16:33N 49°00' W 123°08'9 9.2
2016-Nov-24 15:33N 49°02' W 123°22'2019.8
2016-Nov-24 14:34N 49°13' W 123°47'  
Track history (hours):
 
Tides and Currents Weather Stations Pressure Air Temp Water Temp Dewpoint Dewpoint Depression Visibility Wind Speed Wind Dir Waves Ship Positions

Coastal Inspiration

Last reported at 2016-Dec-04 13:30 UTC. Time now 2016-Dec-04 14:23 UTC.
Position N 49°10' W 123°53'.

Length 160 m; draft 6 m.

Type: Ship. MMSI: 316011408.

Date/timePositionNaut miles runAvg speedWind from/ knotsBaromVisibWave heightAir tempDewpointWater temp
2016-Dec-04 13:30N 49°10' W 123°53'0 0.0
2016-Dec-04 12:29N 49°10' W 123°53'0 0.0
2016-Dec-04 11:29N 49°10' W 123°53'0 0.0
2016-Dec-04 10:28N 49°10' W 123°53'0 0.0
2016-Dec-04 09:28N 49°10' W 123°53'0 0.0
2016-Dec-04 08:28N 49°10' W 123°53'0 0.0
2016-Dec-04 07:33N 49°10' W 123°53'0 0.0
2016-Dec-04 06:33N 49°10' W 123°53'0 0.0
2016-Dec-04 05:32N 49°10' W 123°53'0 0.0
2016-Dec-04 04:32N 49°10' W 123°53'1 0.6
2016-Dec-04 03:33N 49°10' W 123°53'1716.7
2016-Dec-04 02:33N 49°07' W 123°28'1514.8
2016-Dec-04 01:33N 49°00' W 123°08'1111.5
2016-Dec-04 00:34N 49°04' W 123°25'1918.3
2016-Dec-03 23:33N 49°13' W 123°49'3 3.3
2016-Dec-03 22:33N 49°11' W 123°53'1817.6
2016-Dec-03 21:33N 49°06' W 123°27'1414.2
2016-Dec-03 20:34N 49°00' W 123°08'1111.1
2016-Dec-03 19:33N 49°03' W 123°24'1918.7
2016-Dec-03 18:33N 49°13' W 123°49'3 3.0
2016-Dec-03 17:33N 49°12' W 123°53'1817.8
2016-Dec-03 16:33N 49°07' W 123°27'1414.0
2016-Dec-03 15:34N 49°00' W 123°08'1211.5
2016-Dec-03 14:33N 49°04' W 123°25'1918.7
2016-Dec-03 13:33N 49°13' W 123°50'4 1.9
2016-Dec-03 11:26N 49°10' W 123°53'0 0.0
2016-Dec-03 10:23N 49°10' W 123°53'3 1.4
2016-Dec-03 08:33N 49°12' W 123°53'1717.5
2016-Dec-03 07:34N 49°07' W 123°27'1414.3
2016-Dec-03 06:33N 49°00' W 123°08'1212.0
2016-Dec-03 05:34N 49°04' W 123°25'1918.6
2016-Dec-03 04:33N 49°13' W 123°50'0 0.2
2016-Dec-03 03:34N 49°13' W 123°50'1919.0
2016-Dec-03 02:33N 49°05' W 123°23'1111.3
2016-Dec-03 01:33N 49°00' W 123°08'1211.7
2016-Dec-03 00:33N 49°04' W 123°25'1818.4
2016-Dec-02 23:33N 49°13' W 123°49'3 3.0
2016-Dec-02 22:34N 49°11' W 123°53'1818.0
2016-Dec-02 21:34N 49°06' W 123°27'1413.4
2016-Dec-02 20:32N 49°00' W 123°08'1212.0
2016-Dec-02 19:33N 49°04' W 123°25'1918.7
2016-Dec-02 18:33N 49°13' W 123°50'3 2.7
2016-Dec-02 17:33N 49°11' W 123°53'1817.8
2016-Dec-02 16:33N 49°07' W 123°27'1413.9
2016-Dec-02 15:33N 49°00' W 123°08'1212.0
2016-Dec-02 14:33N 49°04' W 123°25'1918.6
2016-Dec-02 13:34N 49°13' W 123°50'3 0.7
2016-Dec-02 08:33N 49°10' W 123°53'1717.3
2016-Dec-02 07:33N 49°07' W 123°27'1414.3
2016-Dec-02 06:33N 49°00' W 123°08'1212.1
2016-Dec-02 05:34N 49°04' W 123°25'1918.9
2016-Dec-02 04:34N 49°13' W 123°51'0 0.1
2016-Dec-02 03:33N 49°13' W 123°51'1918.6
2016-Dec-02 02:33N 49°06' W 123°24'1212.0
2016-Dec-02 01:33N 49°00' W 123°08'1212.1
2016-Dec-02 00:34N 49°04' W 123°25'1818.2
2016-Dec-01 23:34N 49°13' W 123°50'3 2.5
2016-Dec-01 22:33N 49°12' W 123°53'1818.4
2016-Dec-01 21:34N 49°06' W 123°27'1313.4
2016-Dec-01 20:33N 49°00' W 123°08'1211.5
2016-Dec-01 19:33N 49°03' W 123°25'1918.7
2016-Dec-01 18:33N 49°13' W 123°49'3 2.6
2016-Dec-01 17:33N 49°12' W 123°53'1817.9
2016-Dec-01 16:32N 49°07' W 123°27'1413.9
2016-Dec-01 15:33N 49°00' W 123°08'1211.7
2016-Dec-01 14:33N 49°04' W 123°25'20 3.3
2016-Dec-01 08:30N 49°12' W 123°53'1818.8
2016-Dec-01 07:33N 49°06' W 123°27'1414.1
2016-Dec-01 06:33N 49°00' W 123°08'1313.4
2016-Dec-01 05:33N 49°04' W 123°27'5 1.7
2016-Dec-01 02:33N 49°03' W 123°20'8 8.4
2016-Dec-01 01:34N 49°00' W 123°08'1211.9
2016-Dec-01 00:33N 49°03' W 123°26'18 8.5
2016-Nov-30 22:25N 49°13' W 123°49'1719.1
2016-Nov-30 21:32N 49°06' W 123°26'1313.3
2016-Nov-30 20:33N 49°00' W 123°08'1212.4
2016-Nov-30 19:33N 49°04' W 123°26'18 8.8
2016-Nov-30 17:33N 49°13' W 123°49'2020.3
2016-Nov-30 16:33N 49°04' W 123°21'10 9.3
2016-Nov-30 15:32N 49°00' W 123°08'1312.9
2016-Nov-30 14:33N 49°04' W 123°26'18 2.9
2016-Nov-30 08:19N 49°13' W 123°51'1619.8
2016-Nov-30 07:32N 49°08' W 123°28'1515.4
2016-Nov-30 06:32N 49°00' W 123°08'1010.6
2016-Nov-30 05:33N 49°03' W 123°23'2019.3
2016-Nov-30 04:31N 49°13' W 123°50'2 2.1
2016-Nov-30 03:30N 49°12' W 123°53'1818.5
2016-Nov-30 02:32N 49°06' W 123°27'1411.5
2016-Nov-30 01:21N 49°00' W 123°08'1215.0
2016-Nov-30 00:32N 49°04' W 123°26'1818.3
2016-Nov-29 23:33N 49°13' W 123°50'0 0.1
2016-Nov-29 22:24N 49°13' W 123°50'1719.1
2016-Nov-29 21:31N 49°06' W 123°26'1313.5
2016-Nov-29 20:33N 49°00' W 123°08'1211.6
2016-Nov-29 19:33N 49°03' W 123°25'2 0.7
2016-Nov-29 16:33N 49°05' W 123°25'1212.0
2016-Nov-29 15:32N 49°00' W 123°08'1212.4
2016-Nov-29 14:33N 49°04' W 123°26'1817.9
2016-Nov-29 13:33N 49°13' W 123°49'3 0.6
2016-Nov-29 08:28N 49°12' W 123°53'1719.1
2016-Nov-29 07:33N 49°07' W 123°28'1414.3
2016-Nov-29 06:33N 49°00' W 123°08'1212.1
2016-Nov-29 05:34N 49°04' W 123°26'2 0.6
2016-Nov-29 02:33N 49°06' W 123°25'1312.4
2016-Nov-29 01:33N 49°00' W 123°08'1212.4
2016-Nov-29 00:33N 49°04' W 123°26'18 8.5
2016-Nov-28 22:26N 49°13' W 123°50'1719.0
2016-Nov-28 21:32N 49°06' W 123°26'1310.8
2016-Nov-28 20:20N 49°00' W 123°08'1215.2
2016-Nov-28 19:33N 49°04' W 123°25'19 9.2
2016-Nov-28 17:31N 49°13' W 123°50'1718.0
2016-Nov-28 16:33N 49°06' W 123°26'1311.2
2016-Nov-28 15:22N 49°00' W 123°08'1215.3
2016-Nov-28 14:33N 49°03' W 123°26'20 3.6
2016-Nov-28 09:05N 49°12' W 123°53'1518.8
2016-Nov-28 08:16N 49°07' W 123°31'1419.9
2016-Nov-28 07:33N 49°00' W 123°12'6 5.7
2016-Nov-28 06:33N 49°01' W 123°21'2210.8
2016-Nov-28 04:33N 49°13' W 123°48'2020.4
2016-Nov-28 03:33N 49°04' W 123°21'9 8.6
2016-Nov-28 02:30N 49°00' W 123°08'6 6.9
2016-Nov-28 01:33N 49°01' W 123°18'2420.8
2016-Nov-28 00:23N 49°13' W 123°50'3 2.6
2016-Nov-27 23:14N 49°12' W 123°53'1319.1
2016-Nov-27 22:32N 49°09' W 123°33'1919.1
2016-Nov-27 21:33N 49°00' W 123°08'0 0.1
2016-Nov-27 20:33N 49°00' W 123°08'1111.5
2016-Nov-27 19:33N 49°03' W 123°25'16 1.0
2016-Nov-27 03:23N 49°13' W 123°45'1417.1
2016-Nov-27 02:33N 49°06' W 123°25'1312.8
2016-Nov-27 01:33N 49°00' W 123°08'1312.9
2016-Nov-27 00:33N 49°04' W 123°27'1916.9
2016-Nov-26 23:27N 49°13' W 123°52'2 2.2
2016-Nov-26 22:23N 49°13' W 123°49'1518.7
2016-Nov-26 21:34N 49°07' W 123°27'1414.0
2016-Nov-26 20:33N 49°00' W 123°08'1111.4
2016-Nov-26 19:33N 49°03' W 123°25'20 9.9
2016-Nov-26 17:33N 49°13' W 123°52'1817.9
2016-Nov-26 16:32N 49°06' W 123°26'1313.4
2016-Nov-26 15:33N 49°00' W 123°08'1212.5
2016-Nov-26 14:33N 49°04' W 123°26'19 3.2
2016-Nov-26 08:26N 49°12' W 123°53'1618.4
2016-Nov-26 07:33N 49°07' W 123°30'1615.8
2016-Nov-26 06:33N 49°00' W 123°08'1110.8
2016-Nov-26 05:34N 49°04' W 123°24'2019.1
2016-Nov-26 04:31N 49°13' W 123°50'2 2.2
2016-Nov-26 03:31N 49°12' W 123°53'1818.8
2016-Nov-26 02:33N 49°06' W 123°27'1413.7
2016-Nov-26 01:32N 49°00' W 123°08'1110.9
2016-Nov-26 00:33N 49°03' W 123°24'3 1.1
2016-Nov-25 21:33N 49°06' W 123°26'1313.5
2016-Nov-25 20:33N 49°00' W 123°08'1212.1
2016-Nov-25 19:33N 49°04' W 123°26'18 9.0
2016-Nov-25 17:32N 49°13' W 123°50'1818.0
2016-Nov-25 16:33N 49°05' W 123°25'1212.3
2016-Nov-25 15:33N 49°00' W 123°08'1212.3
2016-Nov-25 14:33N 49°04' W 123°26'16 2.7
2016-Nov-25 08:32N 49°13' W 123°46'2020.3
2016-Nov-25 07:33N 49°03' W 123°19'8 8.0
2016-Nov-25 06:33N 49°00' W 123°08'2118.2
2016-Nov-25 05:24N 49°09' W 123°37'17 6.0
2016-Nov-25 02:34N 49°01' W 123°15'1 1.4
2016-Nov-25 01:33N 49°00' W 123°13'12 3.9
2016-Nov-24 22:20N 49°07' W 123°28'1519.1
2016-Nov-24 21:33N 49°00' W 123°08'6 6.5
2016-Nov-24 20:33N 49°00' W 123°18'2019.8
2016-Nov-24 19:34N 49°11' W 123°43'7 7.1
2016-Nov-24 18:33N 49°10' W 123°53'1616.1
2016-Nov-24 17:33N 49°08' W 123°29'1515.5
2016-Nov-24 16:33N 49°00' W 123°08'9 9.2
2016-Nov-24 15:33N 49°02' W 123°22'2019.8
2016-Nov-24 14:34N 49°13' W 123°47'  

Dump ship's entire track history